Time;durP1;ratioP1;P1;durP2;ratioP2;P2;SDS_P1;SDS_P2;PMS_P1;PMS_P2;Temp;Humidity;BMP_temperature;BMP_pressure;BME280_temperature;BME280_humidity;BME280_pressure;Samples;Min_cycle;Max_cycle;Signal;HPM_P1;HPM_P2
2023/10/11 00:09:36;;;;;;;15.40;7.70;;;;;;;8.64;95.97;101087.47;31195111;28;20057;-74
2023/10/11 00:24:38;;;;;;;16.00;6.10;;;;;;;8.48;96.78;101118.34;31209331;28;20053;-74
2023/10/11 00:39:40;;;;;;;14.50;6.60;;;;;;;8.25;98.23;101115.09;31188554;28;20081;-75
2023/10/11 00:54:46;;;;;;;13.07;6.33;;;;;;;8.06;100.00;101128.84;31182365;28;20056;-75
2023/10/11 01:09:48;;;;;;;9.00;5.43;;;;;;;7.92;100.00;101155.78;31161340;28;20061;-75
2023/10/11 01:24:50;;;;;;;10.50;5.13;;;;;;;7.93;100.00;101170.88;31171927;28;20037;-74
2023/10/11 01:39:52;;;;;;;8.50;5.17;;;;;;;7.78;100.00;101189.69;31175001;28;20111;-75
2023/10/11 01:54:57;;;;;;;21.53;9.93;;;;;;;7.73;100.00;101219.75;31171927;28;20054;-75
2023/10/11 02:09:59;;;;;;;9.70;5.97;;;;;;;7.64;100.00;101227.38;31168898;28;20079;-75
2023/10/11 02:25:04;;;;;;;13.13;6.97;;;;;;;7.66;100.00;101254.81;31167106;28;20061;-75
2023/10/11 02:40:10;;;;;;;16.70;8.23;;;;;;;7.44;100.00;101275.41;31193421;28;20108;-74
2023/10/11 02:55:21;;;;;;;14.30;8.73;;;;;;;7.27;100.00;101299.50;31228783;28;20065;-75
2023/10/11 03:10:24;;;;;;;11.77;6.27;;;;;;;7.38;100.00;101319.31;31236740;28;20064;-76
2023/10/11 03:25:29;;;;;;;12.07;6.17;;;;;;;7.29;100.00;101329.63;31217494;28;20171;-75
2023/10/11 03:40:34;;;;;;;16.63;7.77;;;;;;;7.22;100.00;101361.94;31200557;28;20056;-76
2023/10/11 03:55:45;;;;;;;;;;;;;;;7.19;100.00;101375.03;31212791;28;20045;-75
2023/10/11 04:10:49;;;;;;;12.67;6.70;;;;;;;7.16;100.00;101413.56;31195675;28;19921;-76
2023/10/11 04:25:51;;;;;;;18.03;6.07;;;;;;;7.17;100.00;101428.63;31225312;28;20562;-81
2023/10/11 04:40:54;;;;;;;19.87;7.40;;;;;;;7.31;100.00;101451.59;31240659;28;20142;-83
2023/10/11 04:56:09;;;;;;;16.60;6.47;;;;;;;7.92;98.20;101480.25;31242060;28;20049;-83
2023/10/11 05:11:25;;;;;;;14.10;5.50;;;;;;;8.77;94.35;101513.72;31249811;28;20053;-83
2023/10/11 05:26:41;;;;;;;13.37;7.37;;;;;;;9.87;87.82;101526.25;31213206;28;20047;-83
2023/10/11 05:57:04;;;;;;;11.20;5.57;;;;;;;13.22;72.62;101571.19;31201254;28;20046;-74
2023/10/11 06:12:22;;;;;;;11.93;6.87;;;;;;;14.52;67.39;101597.63;31191790;28;20586;-78
2023/10/11 06:42:46;;;;;;;9.17;5.73;;;;;;;17.15;57.74;101627.94;31220269;28;20471;-75
2023/10/11 06:57:50;;;;;;;5.57;3.10;;;;;;;18.18;46.58;101628.97;31224671;28;20056;-77
2023/10/11 07:13:06;;;;;;;7.03;3.37;;;;;;;19.03;39.30;101629.28;31225363;28;20053;-74
2023/10/11 07:28:11;;;;;;;2.03;1.33;;;;;;;19.69;36.85;101648.84;31205822;28;20073;-78
2023/10/11 07:43:16;;;;;;;;;;;;;;;20.49;35.47;101657.53;31207964;28;20057;-73
2023/10/11 07:58:26;;;;;;;3.20;1.50;;;;;;;20.07;34.83;101659.78;31219109;28;19925;-74
2023/10/11 08:13:28;;;;;;;4.03;1.93;;;;;;;19.76;36.19;101670.66;31231805;28;20457;-79
2023/10/11 08:28:34;;;;;;;6.40;1.52;;;;;;;20.96;33.12;101684.19;31211086;28;20053;-76
2023/10/11 08:43:38;;;;;;;1.67;1.17;;;;;;;20.91;32.14;101698.56;31199416;28;20045;-73
2023/10/11 08:58:41;;;;;;;2.03;1.05;;;;;;;21.89;32.16;101697.91;31198832;28;20045;-75
2023/10/11 09:13:43;;;;;;;2.78;1.45;;;;;;;21.93;32.00;101696.53;31212777;28;20084;-74
2023/10/11 09:29:02;;;;;;;2.22;1.35;;;;;;;22.37;32.46;101687.97;31243042;28;20395;-76
2023/10/11 09:44:07;;;;;;;1.95;1.02;;;;;;;22.38;31.59;101672.91;31206976;28;20053;-75
2023/10/11 09:59:09;;;;;;;2.00;1.38;;;;;;;22.81;30.61;101654.41;31210126;28;20058;-74
2023/10/11 10:14:26;;;;;;;1.83;1.30;;;;;;;22.20;29.92;101645.28;31212155;28;20077;-72
2023/10/11 10:29:55;;;;;;;30.48;19.85;;;;;;;22.67;28.78;101645.50;31207525;28;20054;-71
2023/10/11 10:44:59;;;;;;;1.40;1.20;;;;;;;23.26;27.83;101640.38;31201622;28;20049;-71
2023/10/11 11:00:20;;;;;;;2.33;1.23;;;;;;;23.56;25.68;101640.56;31229456;28;20581;-72
2023/10/11 11:15:36;;;;;;;2.28;1.45;;;;;;;23.11;26.80;101632.00;31236078;28;20463;-74
2023/10/11 11:30:43;;;;;;;5.70;2.50;;;;;;;23.73;26.60;101644.44;31211696;28;20058;-81
2023/10/11 11:45:56;;;;;;;5.95;2.08;;;;;;;24.71;26.50;101636.97;31257125;28;20053;-81
2023/10/11 12:01:15;;;;;;;3.13;1.27;;;;;;;24.28;26.15;101646.81;31231030;28;20053;-81
2023/10/11 12:16:22;;;;;;;2.33;1.63;;;;;;;20.23;28.54;101645.06;31195793;28;20091;-81
2023/10/11 12:31:25;;;;;;;11.15;4.72;;;;;;;18.35;31.22;101626.91;31256745;28;20079;-80
2023/10/11 12:46:28;;;;;;;3.43;2.07;;;;;;;17.82;32.21;101615.38;31216115;28;20469;-82
2023/10/11 13:01:40;;;;;;;2.87;1.60;;;;;;;17.19;32.03;101609.44;31215565;28;20121;-81
2023/10/11 13:16:42;;;;;;;2.10;1.50;;;;;;;16.93;32.43;101597.47;31210466;28;20045;-73
2023/10/11 13:31:46;;;;;;;8.20;4.53;;;;;;;16.70;33.74;101593.66;31185553;28;20099;-74
2023/10/11 13:46:53;;;;;;;6.00;1.63;;;;;;;16.63;33.76;101593.00;31223435;28;20083;-74
2023/10/11 14:01:59;;;;;;;17.13;6.97;;;;;;;16.52;35.30;101593.25;31223408;28;20061;-72
2023/10/11 14:17:05;;;;;;;5.17;2.43;;;;;;;16.33;33.59;101585.78;31224888;28;20483;-73
2023/10/11 14:32:10;;;;;;;6.43;2.93;;;;;;;15.47;36.15;101599.44;31227740;28;20053;-76
2023/10/11 14:47:13;;;;;;;8.17;3.23;;;;;;;14.71;38.41;101611.84;31223117;28;20053;-78
2023/10/11 15:02:16;;;;;;;5.30;2.97;;;;;;;14.23;40.02;101615.50;31247772;28;20064;-78
2023/10/11 15:17:19;;;;;;;5.63;2.63;;;;;;;13.76;40.89;101630.78;31235034;28;20116;-76
2023/10/11 15:32:23;;;;;;;5.43;2.47;;;;;;;13.41;41.91;101648.19;31226736;28;20056;-79
2023/10/11 15:47:30;;;;;;;7.90;3.47;;;;;;;13.12;42.64;101648.34;31233398;28;20107;-84
2023/10/11 16:02:33;;;;;;;8.17;3.10;;;;;;;12.89;42.77;101656.25;31239334;28;20077;-80
2023/10/11 16:17:37;;;;;;;4.40;2.87;;;;;;;12.73;42.93;101653.22;31232687;28;20058;-83
2023/10/11 16:32:50;;;;;;;6.57;3.20;;;;;;;12.65;43.23;101668.81;31247579;28;20049;-82
2023/10/11 16:47:52;;;;;;;5.63;3.20;;;;;;;12.64;42.34;101661.78;31222703;28;20139;-78
2023/10/11 17:02:54;;;;;;;7.70;3.00;;;;;;;12.69;41.95;101676.97;31223088;28;20057;-84
2023/10/11 17:18:02;;;;;;;7.60;2.70;;;;;;;12.56;41.99;101666.47;31245829;28;20054;-82
2023/10/11 17:33:05;;;;;;;4.87;2.40;;;;;;;12.55;41.99;101678.53;31221070;28;20072;-80
2023/10/11 17:48:07;;;;;;;7.60;3.13;;;;;;;12.72;41.30;101673.47;31253799;28;20057;-78
2023/10/11 18:03:09;;;;;;;5.07;2.87;;;;;;;12.70;40.85;101665.69;31189649;28;20058;-78
2023/10/11 18:18:11;;;;;;;6.50;3.60;;;;;;;12.71;40.58;101663.72;31222446;28;20049;-79
2023/10/11 18:33:13;;;;;;;7.37;2.97;;;;;;;12.35;42.14;101674.72;31230968;28;20160;-78
2023/10/11 18:48:17;;;;;;;5.03;2.77;;;;;;;12.09;41.41;101681.34;31203490;28;20064;-77
2023/10/11 19:03:19;;;;;;;5.17;2.33;;;;;;;11.71;40.87;101688.31;31190380;28;20053;-78
2023/10/11 19:18:21;;;;;;;6.83;3.50;;;;;;;11.22;43.71;101683.56;31180042;28;20046;-80
2023/10/11 19:33:27;;;;;;;9.87;3.90;;;;;;;10.82;45.60;101668.28;31230893;28;20057;-79
2023/10/11 19:48:29;;;;;;;7.77;2.90;;;;;;;10.79;43.76;101664.41;31212559;28;20124;-78
2023/10/11 20:03:33;;;;;;;3.37;2.23;;;;;;;10.34;44.04;101683.94;31227115;28;20046;-78
2023/10/11 20:18:35;;;;;;;4.47;2.57;;;;;;;9.98;43.77;101661.94;31222420;28;20046;-78
2023/10/11 20:33:38;;;;;;;3.93;1.87;;;;;;;9.89;44.94;101642.50;31231110;28;20054;-79
2023/10/11 20:48:42;;;;;;;6.97;2.93;;;;;;;9.84;46.24;101635.50;31195942;28;20050;-77
2023/10/11 21:03:44;;;;;;;7.93;3.20;;;;;;;9.55;47.78;101617.44;31197774;28;20555;-78
2023/10/11 21:18:46;;;;;;;10.30;3.60;;;;;;;9.51;48.95;101606.56;31212695;28;20107;-79
2023/10/11 21:33:49;;;;;;;7.03;3.23;;;;;;;9.53;49.64;101615.09;31229227;28;20055;-77
2023/10/11 21:48:51;;;;;;;6.80;3.53;;;;;;;9.27;50.95;101595.47;31217814;28;20076;-79
2023/10/11 22:03:55;;;;;;;7.13;3.20;;;;;;;9.17;53.77;101586.91;31186197;28;20057;-79
2023/10/11 22:18:58;;;;;;;7.07;3.10;;;;;;;9.09;55.79;101596.09;31216673;28;20084;-78
2023/10/11 22:34:02;;;;;;;7.53;3.20;;;;;;;8.99;58.22;101607.59;31195692;28;20203;-78
2023/10/11 22:49:04;;;;;;;4.23;2.60;;;;;;;8.94;59.64;101583.56;31185928;28;20148;-76
2023/10/11 23:04:07;;;;;;;3.57;2.03;;;;;;;8.87;62.80;101588.91;31221150;28;20053;-77
2023/10/11 23:19:18;;;;;;;4.70;2.53;;;;;;;8.84;63.91;101573.38;31232127;28;20495;-78
2023/10/11 23:34:24;;;;;;;4.07;2.57;;;;;;;8.45;65.42;101567.53;31217113;28;20423;-79
2023/10/11 23:49:30;;;;;;;7.23;3.53;;;;;;;8.29;69.14;101554.13;31204359;28;20136;-79
